Time;durP1;ratioP1;P1;durP2;ratioP2;P2;SDS_P1;SDS_P2;PMS_P1;PMS_P2;Temp;Humidity;BMP_temperature;BMP_pressure;BME280_temperature;BME280_humidity;BME280_pressure;Samples;Min_cycle;Max_cycle;Signal;HPM_P1;HPM_P2
2022/04/27 00:01:32;;;;;;;13.00;8.07;;;6.10;99.90;;;;;;4197392;28;20315;-70
2022/04/27 00:03:32;;;;;;;12.40;7.27;;;6.00;99.90;;;;;;4197424;28;20179;-69
2022/04/27 00:05:34;;;;;;;9.93;6.40;;;6.00;99.90;;;;;;4195834;28;20209;-69
2022/04/27 00:07:34;;;;;;;9.03;5.97;;;6.10;99.90;;;;;;4197434;28;20665;-70
2022/04/27 00:09:35;;;;;;;10.43;6.73;;;6.10;99.90;;;;;;4197295;28;20454;-69
2022/04/27 00:11:36;;;;;;;10.53;7.10;;;6.20;99.90;;;;;;4197414;28;20190;-70
2022/04/27 00:13:37;;;;;;;8.30;5.50;;;6.00;99.90;;;;;;4197330;28;20183;-69
2022/04/27 00:15:37;;;;;;;8.57;6.07;;;6.00;99.90;;;;;;4197113;28;20193;-69
2022/04/27 00:17:39;;;;;;;7.80;5.23;;;5.90;99.90;;;;;;4197568;28;20183;-69
2022/04/27 00:19:40;;;;;;;8.37;5.90;;;6.00;99.90;;;;;;4196262;28;20215;-70
2022/04/27 00:21:41;;;;;;;11.17;6.37;;;5.80;99.90;;;;;;4196994;28;20554;-70
2022/04/27 00:23:41;;;;;;;9.23;6.27;;;5.90;99.90;;;;;;4197008;28;20194;-69
2022/04/27 00:25:42;;;;;;;7.93;5.87;;;6.00;99.90;;;;;;4196841;28;20179;-69
2022/04/27 00:27:42;;;;;;;7.43;5.67;;;6.00;99.90;;;;;;4197038;28;20184;-70
2022/04/27 00:29:43;;;;;;;7.90;6.57;;;5.90;99.90;;;;;;4196978;28;20202;-70
2022/04/27 00:31:44;;;;;;;5.87;4.80;;;5.80;99.90;;;;;;4197061;28;20183;-69
2022/04/27 00:33:45;;;;;;;8.90;5.83;;;5.90;99.90;;;;;;4197067;28;20187;-69
2022/04/27 00:35:46;;;;;;;7.43;5.30;;;5.80;99.90;;;;;;4196867;28;20222;-70
2022/04/27 00:37:47;;;;;;;7.33;5.23;;;5.70;99.90;;;;;;4196914;28;20464;-69
2022/04/27 00:39:47;;;;;;;7.07;5.43;;;5.70;99.90;;;;;;4193174;28;20186;-69
2022/04/27 00:42:00;;;;;;;7.77;5.50;;;5.60;99.90;;;;;;4196797;28;20276;-69
2022/04/27 00:44:01;;;;;;;8.50;5.63;;;5.40;99.90;;;;;;4196930;28;20193;-69
2022/04/27 00:46:02;;;;;;;9.30;6.13;;;5.20;99.90;;;;;;4196655;28;20421;-69
2022/04/27 00:48:03;;;;;;;8.13;5.70;;;4.90;99.90;;;;;;4195444;28;20947;-69
2022/04/27 00:50:04;;;;;;;10.70;5.70;;;4.90;99.90;;;;;;4196800;28;20426;-69
2022/04/27 00:52:06;;;;;;;9.40;5.73;;;4.80;99.90;;;;;;4196891;28;20953;-70
2022/04/27 00:54:07;;;;;;;11.57;6.13;;;4.60;99.90;;;;;;4195107;28;20432;-69
2022/04/27 00:56:08;;;;;;;10.50;5.57;;;4.60;99.90;;;;;;4196470;28;20428;-71
2022/04/27 00:58:12;;;;;;;9.73;5.67;;;4.60;99.90;;;;;;4195500;28;20230;-68
2022/04/27 01:00:15;;;;;;;8.73;6.00;;;4.60;99.90;;;;;;4195549;28;20200;-70
2022/04/27 01:02:16;;;;;;;11.03;6.80;;;4.50;99.90;;;;;;4195458;28;20471;-70
2022/04/27 01:04:17;;;;;;;10.50;6.17;;;4.40;99.90;;;;;;4196524;28;20428;-70
2022/04/27 01:06:17;;;;;;;11.30;6.73;;;4.30;99.90;;;;;;4194937;28;20871;-70
2022/04/27 01:08:22;;;;;;;8.73;5.27;;;4.30;99.90;;;;;;4196410;28;20263;-70
2022/04/27 01:10:23;;;;;;;9.23;5.77;;;4.30;99.90;;;;;;4195082;28;20216;-69
2022/04/27 01:12:24;;;;;;;10.43;6.03;;;4.30;99.90;;;;;;4195169;28;20912;-69
2022/04/27 01:14:25;;;;;;;10.87;6.10;;;4.30;99.90;;;;;;4196392;28;20190;-70
2022/04/27 01:16:26;;;;;;;10.53;6.33;;;4.30;99.90;;;;;;4196072;28;20516;-69
2022/04/27 01:18:26;;;;;;;11.33;6.47;;;4.20;99.90;;;;;;4196326;28;20200;-70
2022/04/27 01:20:44;;;;;;;10.53;6.10;;;4.20;99.90;;;;;;4196462;28;20196;-70
2022/04/27 01:22:45;;;;;;;10.77;5.87;;;4.10;99.90;;;;;;4196532;28;20190;-69
2022/04/27 01:24:46;;;;;;;12.73;7.60;;;4.10;99.90;;;;;;4195413;28;20423;-70
2022/04/27 01:26:51;;;;;;;8.43;5.80;;;4.10;99.90;;;;;;4196162;28;20205;-70
2022/04/27 01:28:51;;;;;;;9.77;5.63;;;4.10;99.90;;;;;;4196469;28;20251;-70
2022/04/27 01:31:02;;;;;;;9.53;5.87;;;4.10;99.90;;;;;;4196268;28;20832;-70
2022/04/27 01:33:07;;;;;;;10.33;5.87;;;4.10;99.90;;;;;;4194903;28;20269;-70
2022/04/27 01:35:08;;;;;;;12.53;7.23;;;4.10;99.90;;;;;;4196082;28;20414;-69
2022/04/27 01:39:28;;;;;;;10.00;6.27;;;4.20;99.90;;;;;;4196219;28;20216;-70
2022/04/27 01:41:29;;;;;;;13.90;8.37;;;4.30;99.90;;;;;;4196211;28;20841;-71
2022/04/27 01:43:30;;;;;;;11.27;6.10;;;4.30;99.90;;;;;;4200046;28;20600;-70
2022/04/27 01:45:31;;;;;;;9.33;5.70;;;4.40;99.90;;;;;;4201490;28;20189;-69
2022/04/27 01:47:31;;;;;;;10.90;6.53;;;4.30;99.90;;;;;;4201689;28;20186;-71
2022/04/27 01:49:32;;;;;;;10.00;5.93;;;4.30;99.90;;;;;;4201820;28;20211;-69
2022/04/27 01:54:15;;;;;;;10.60;7.17;;;4.50;99.90;;;;;;4177908;28;20216;-70
2022/04/27 01:56:15;;;;;;;7.90;5.17;;;4.60;99.90;;;;;;4201404;28;20431;-71
2022/04/27 01:58:17;;;;;;;9.60;5.70;;;4.60;99.90;;;;;;4201510;28;20526;-69
2022/04/27 02:00:18;;;;;;;9.60;5.37;;;4.60;99.90;;;;;;4200107;28;20239;-69
2022/04/27 02:02:19;;;;;;;10.33;5.87;;;4.70;99.90;;;;;;4201455;28;20945;-69
2022/04/27 02:04:19;;;;;;;8.30;5.43;;;4.60;99.90;;;;;;4201433;28;20659;-70
2022/04/27 02:06:20;;;;;;;10.83;6.80;;;4.60;99.90;;;;;;4201162;28;20645;-70
2022/04/27 02:08:21;;;;;;;8.50;5.47;;;4.60;99.90;;;;;;4201660;28;20202;-70
2022/04/27 02:10:21;;;;;;;8.00;5.00;;;4.60;99.90;;;;;;4201456;28;20175;-69
2022/04/27 02:12:22;;;;;;;8.83;5.63;;;4.60;99.90;;;;;;4201614;28;20205;-71
2022/04/27 02:14:23;;;;;;;8.27;5.07;;;4.60;99.90;;;;;;4201291;28;20244;-70
2022/04/27 02:16:28;;;;;;;9.10;5.97;;;4.70;99.90;;;;;;4201369;28;20185;-70
2022/04/27 02:18:29;;;;;;;8.87;5.87;;;4.80;99.90;;;;;;4201358;28;20216;-70
2022/04/27 02:20:30;;;;;;;8.30;5.50;;;4.80;99.90;;;;;;4201385;28;20510;-70
2022/04/27 02:22:34;;;;;;;7.90;5.27;;;4.90;99.90;;;;;;4199947;28;20202;-70
2022/04/27 02:24:35;;;;;;;8.10;5.13;;;4.90;99.90;;;;;;4200025;28;20276;-70
2022/04/27 02:26:35;;;;;;;8.40;5.80;;;5.00;99.90;;;;;;4199600;28;21022;-70
2022/04/27 02:28:36;;;;;;;9.13;5.60;;;5.00;99.90;;;;;;4216839;28;20583;-69
2022/04/27 02:30:37;;;;;;;9.53;5.57;;;5.10;99.90;;;;;;4201425;28;20554;-70
2022/04/27 02:32:39;;;;;;;9.73;6.10;;;5.10;99.90;;;;;;4201201;28;20190;-69
2022/04/27 02:34:39;;;;;;;10.50;6.80;;;5.10;99.90;;;;;;4200176;28;20314;-70
2022/04/27 02:36:40;;;;;;;7.17;4.97;;;5.10;99.90;;;;;;4201207;28;20445;-70
2022/04/27 02:38:41;;;;;;;8.20;5.53;;;5.10;99.90;;;;;;4188080;28;20217;-70
2022/04/27 02:40:41;;;;;;;8.97;6.07;;;5.10;99.90;;;;;;4184520;28;20221;-70
2022/04/27 02:42:42;;;;;;;9.37;5.93;;;5.20;99.90;;;;;;4186370;28;20197;-70
2022/04/27 02:44:44;;;;;;;8.20;5.53;;;5.10;99.90;;;;;;4201087;28;20187;-70
2022/04/27 02:46:44;;;;;;;9.17;6.00;;;5.20;99.90;;;;;;4201262;28;20191;-70
2022/04/27 02:53:23;;;;;;;9.30;6.20;;;5.00;99.90;;;;;;4201064;28;20427;-69
2022/04/27 02:55:23;;;;;;;10.13;5.73;;;4.90;99.90;;;;;;4197265;28;20430;-69
2022/04/27 02:57:24;;;;;;;10.27;5.80;;;4.80;99.90;;;;;;4198488;28;20237;-69
2022/04/27 02:59:25;;;;;;;6.73;5.40;;;4.60;99.90;;;;;;4197485;28;20206;-70
2022/04/27 03:01:25;;;;;;;8.30;5.50;;;4.50;99.90;;;;;;4198675;28;20301;-71
2022/04/27 03:03:26;;;;;;;10.30;6.37;;;4.40;99.90;;;;;;4198517;28;20249;-70
2022/04/27 03:05:27;;;;;;;9.57;6.33;;;4.20;99.90;;;;;;4198266;28;20189;-70
2022/04/27 03:07:30;;;;;;;8.57;5.30;;;4.20;99.90;;;;;;4200572;28;20243;-69
2022/04/27 03:09:31;;;;;;;10.43;6.13;;;4.00;99.90;;;;;;4198804;28;20210;-70
2022/04/27 03:11:31;;;;;;;12.27;7.13;;;3.90;99.90;;;;;;4200725;28;20444;-70
2022/04/27 03:13:32;;;;;;;12.40;6.40;;;3.90;99.90;;;;;;4199986;28;20188;-71
2022/04/27 03:15:33;;;;;;;12.23;5.90;;;3.80;99.90;;;;;;4198676;28;20202;-70
2022/04/27 03:17:34;;;;;;;12.27;6.43;;;3.90;99.90;;;;;;4199444;28;20209;-69
2022/04/27 03:19:34;;;;;;;13.83;7.10;;;3.80;99.90;;;;;;4198133;28;20719;-71
2022/04/27 03:21:35;;;;;;;16.30;7.90;;;3.90;99.90;;;;;;4199638;28;20710;-70
2022/04/27 03:23:35;;;;;;;11.40;6.97;;;3.90;99.90;;;;;;4199600;28;20180;-70
2022/04/27 03:25:36;;;;;;;12.60;6.63;;;4.00;99.90;;;;;;4198137;28;20214;-70
2022/04/27 03:27:37;;;;;;;11.03;6.73;;;4.10;99.90;;;;;;4199504;28;20232;-71
2022/04/27 03:29:38;;;;;;;11.63;6.47;;;4.20;99.90;;;;;;4199861;28;20669;-70
2022/04/27 03:31:38;;;;;;;11.73;6.53;;;4.30;99.90;;;;;;4199029;28;20717;-70
2022/04/27 03:33:39;;;;;;;11.10;6.00;;;4.40;99.90;;;;;;4197837;28;20184;-71
2022/04/27 03:35:40;;;;;;;8.90;6.00;;;4.40;99.90;;;;;;4198773;28;20190;-69
2022/04/27 03:37:41;;;;;;;8.27;5.27;;;4.40;99.90;;;;;;4199311;28;20431;-70
2022/04/27 03:39:41;;;;;;;9.23;5.80;;;4.50;99.90;;;;;;4199693;28;20206;-70
2022/04/27 03:41:42;;;;;;;9.57;5.57;;;4.40;99.90;;;;;;4198190;28;20222;-69
2022/04/27 03:43:44;;;;;;;8.83;4.90;;;4.50;99.90;;;;;;4199212;28;20214;-69
2022/04/27 03:45:44;;;;;;;10.73;5.10;;;4.50;99.90;;;;;;4198402;28;20217;-70
2022/04/27 03:47:46;;;;;;;8.93;4.97;;;4.60;99.90;;;;;;4199293;28;20443;-70
2022/04/27 03:49:47;;;;;;;7.43;5.00;;;4.60;99.90;;;;;;4198293;28;20194;-73
2022/04/27 03:51:48;;;;;;;9.57;5.93;;;4.60;99.90;;;;;;4199279;28;20921;-70
2022/04/27 03:53:48;;;;;;;9.47;5.87;;;4.70;99.90;;;;;;4199696;28;20527;-70
2022/04/27 03:55:49;;;;;;;7.67;5.03;;;4.70;99.90;;;;;;4199861;28;20194;-71
2022/04/27 03:57:50;;;;;;;7.80;4.87;;;4.70;99.90;;;;;;4197797;28;20188;-70
2022/04/27 03:59:50;;;;;;;8.67;5.00;;;4.70;99.90;;;;;;4199061;28;20999;-70
2022/04/27 04:01:51;;;;;;;27.00;21.90;;;4.70;99.90;;;;;;4198564;28;20218;-70
2022/04/27 04:03:52;;;;;;;20.13;16.57;;;4.70;99.90;;;;;;4197622;28;20182;-71
2022/04/27 04:05:53;;;;;;;12.30;8.97;;;4.70;99.90;;;;;;4197959;28;20259;-70
2022/04/27 04:07:54;;;;;;;7.97;4.97;;;4.80;99.90;;;;;;4198713;28;20804;-70
2022/04/27 04:09:55;;;;;;;7.77;5.50;;;4.90;99.90;;;;;;4197911;28;20203;-70
2022/04/27 04:11:56;;;;;;;8.70;6.07;;;4.90;99.90;;;;;;4196227;28;20183;-71
2022/04/27 04:13:56;;;;;;;7.93;4.90;;;4.90;99.90;;;;;;4196839;28;20421;-70
2022/04/27 04:15:57;;;;;;;9.13;4.80;;;4.90;99.90;;;;;;4196371;28;20198;-69
2022/04/27 04:17:58;;;;;;;7.87;5.20;;;4.90;99.90;;;;;;4195204;28;20248;-69
2022/04/27 04:19:58;;;;;;;8.13;4.80;;;5.00;99.90;;;;;;4196513;28;20188;-70
2022/04/27 04:22:00;;;;;;;8.03;5.30;;;5.00;99.90;;;;;;4197206;28;20207;-70
2022/04/27 04:24:00;;;;;;;6.83;4.60;;;5.10;99.90;;;;;;4195163;28;20577;-70
2022/04/27 04:28:32;;;;;;;7.97;4.70;;;5.10;99.90;;;;;;4196532;28;20242;-71
2022/04/27 04:30:33;;;;;;;7.93;5.30;;;5.00;99.90;;;;;;4196226;28;20918;-70
2022/04/27 04:32:38;;;;;;;9.43;5.43;;;4.90;99.90;;;;;;4195094;28;20425;-69
2022/04/27 04:34:38;;;;;;;8.83;5.33;;;5.00;99.90;;;;;;4194969;28;20186;-71
2022/04/27 04:36:39;;;;;;;8.53;5.50;;;5.00;99.90;;;;;;4196332;28;20428;-69
2022/04/27 04:38:40;;;;;;;7.87;5.20;;;5.00;99.90;;;;;;4196196;28;20298;-71
2022/04/27 04:40:40;;;;;;;7.47;4.97;;;4.80;99.90;;;;;;4194632;28;20186;-71
2022/04/27 04:42:41;;;;;;;9.00;5.20;;;4.80;99.90;;;;;;4196002;28;20288;-71
2022/04/27 04:44:42;;;;;;;9.40;5.20;;;4.70;99.90;;;;;;4196075;28;20356;-70
2022/04/27 04:46:42;;;;;;;9.67;5.60;;;4.60;99.90;;;;;;4194608;28;20203;-70
2022/04/27 04:48:43;;;;;;;8.80;5.07;;;4.50;99.90;;;;;;4186790;28;20204;-72
2022/04/27 04:50:44;;;;;;;8.47;4.77;;;4.60;99.90;;;;;;4179411;28;20179;-71
2022/04/27 04:52:46;;;;;;;7.93;4.83;;;4.60;99.90;;;;;;4179370;28;20195;-71
2022/04/27 04:54:46;;;;;;;7.83;4.97;;;4.50;99.90;;;;;;4178268;28;20188;-70
2022/04/27 04:56:47;;;;;;;10.60;6.30;;;4.40;99.90;;;;;;4179091;28;20433;-70
2022/04/27 04:58:47;;;;;;;9.50;6.00;;;4.20;99.90;;;;;;4179460;28;20277;-70
2022/04/27 05:00:48;;;;;;;10.47;5.73;;;4.20;99.90;;;;;;4180977;28;20199;-70
2022/04/27 05:02:49;;;;;;;8.97;5.40;;;4.20;99.90;;;;;;4195607;28;20180;-70
2022/04/27 05:04:50;;;;;;;7.90;5.40;;;4.10;99.90;;;;;;4195665;28;20204;-71
2022/04/27 05:06:51;;;;;;;10.37;5.87;;;4.20;99.90;;;;;;4194205;28;20182;-70
2022/04/27 05:08:52;;;;;;;11.20;6.43;;;4.30;99.90;;;;;;4195651;28;20471;-71
2022/04/27 05:10:53;;;;;;;9.27;5.90;;;4.40;99.90;;;;;;4195762;28;20235;-70
2022/04/27 05:12:54;;;;;;;11.20;6.53;;;4.50;99.90;;;;;;4195596;28;20265;-71
2022/04/27 05:14:55;;;;;;;10.47;5.93;;;4.70;99.90;;;;;;4195643;28;20445;-70
2022/04/27 05:16:56;;;;;;;9.53;6.20;;;4.80;99.90;;;;;;4195292;28;20175;-70
2022/04/27 05:18:56;;;;;;;8.33;5.37;;;5.00;99.90;;;;;;4193727;28;20221;-70
2022/04/27 05:20:57;;;;;;;8.07;5.43;;;5.20;99.90;;;;;;4195595;28;20175;-71
2022/04/27 05:22:58;;;;;;;9.13;5.40;;;5.20;99.90;;;;;;4195652;28;20171;-70
2022/04/27 05:25:02;;;;;;;6.97;5.83;;;5.00;99.90;;;;;;4195510;28;20187;-71
2022/04/27 05:27:03;;;;;;;7.63;5.30;;;5.10;99.90;;;;;;4195589;28;20190;-70
2022/04/27 05:33:42;;;;;;;6.43;4.60;;;5.40;99.90;;;;;;4195734;28;20421;-70
2022/04/27 05:35:43;;;;;;;6.53;4.47;;;5.60;99.90;;;;;;4195250;28;20430;-71
2022/04/27 05:37:44;;;;;;;8.70;5.63;;;5.70;99.90;;;;;;4194282;28;20187;-70
2022/04/27 05:39:44;;;;;;;7.40;5.30;;;5.90;99.90;;;;;;4194188;28;20449;-70
2022/04/27 05:41:46;;;;;;;7.43;4.70;;;5.90;99.90;;;;;;4195545;28;20211;-71
2022/04/27 05:43:47;;;;;;;7.93;4.87;;;5.90;99.90;;;;;;4194299;28;20184;-70
2022/04/27 05:45:48;;;;;;;6.07;4.63;;;5.80;99.90;;;;;;4195249;28;20478;-71
2022/04/27 05:47:49;;;;;;;8.23;5.30;;;5.90;99.90;;;;;;4195333;28;20465;-70
2022/04/27 05:49:50;;;;;;;7.43;4.53;;;5.80;99.90;;;;;;4194214;28;20992;-71
2022/04/27 05:51:51;;;;;;;7.20;5.03;;;5.80;99.90;;;;;;4195515;28;20635;-70
2022/04/27 05:53:51;;;;;;;9.00;5.10;;;5.70;99.90;;;;;;4195526;28;20464;-71
2022/04/27 05:55:52;;;;;;;5.70;4.23;;;5.70;99.90;;;;;;4195345;28;20187;-70
2022/04/27 05:57:53;;;;;;;6.33;4.30;;;5.60;99.90;;;;;;4195462;28;20180;-70
2022/04/27 05:59:53;;;;;;;6.33;4.60;;;5.50;99.90;;;;;;4195516;28;20194;-73
2022/04/27 06:01:54;;;;;;;5.20;3.93;;;5.50;99.90;;;;;;4195261;28;20207;-70
2022/04/27 06:03:55;;;;;;;8.80;4.53;;;5.40;99.90;;;;;;4195447;28;20175;-70
2022/04/27 06:05:56;;;;;;;4.63;3.30;;;5.40;99.90;;;;;;4195062;28;20187;-70
2022/04/27 06:07:57;;;;;;;6.70;4.30;;;5.70;99.90;;;;;;4195198;28;20454;-70
2022/04/27 06:09:57;;;;;;;4.20;3.20;;;5.70;99.90;;;;;;4195298;28;20236;-71
2022/04/27 06:11:58;;;;;;;4.33;3.27;;;6.00;99.90;;;;;;4195233;28;20184;-71
2022/04/27 06:13:59;;;;;;;3.30;2.70;;;6.30;99.90;;;;;;4195355;28;20184;-70
2022/04/27 06:15:59;;;;;;;3.10;2.40;;;6.70;99.90;;;;;;4193968;28;20635;-70
2022/04/27 06:18:00;;;;;;;3.30;2.40;;;6.80;99.90;;;;;;4195218;28;20645;-71
2022/04/27 06:20:01;;;;;;;3.33;2.70;;;7.00;99.90;;;;;;4195212;28;20192;-70
2022/04/27 06:22:01;;;;;;;2.80;2.47;;;7.40;99.90;;;;;;4195150;28;20234;-71
2022/04/27 06:24:04;;;;;;;4.43;3.50;;;7.50;99.40;;;;;;4195247;28;20263;-71
2022/04/27 06:26:06;;;;;;;4.33;2.77;;;7.30;99.90;;;;;;4193754;28;20184;-71
2022/04/27 06:28:07;;;;;;;3.23;2.60;;;7.30;99.90;;;;;;4195109;28;20535;-72
2022/04/27 06:30:09;;;;;;;3.90;3.30;;;7.30;99.40;;;;;;4197990;28;20433;-70
2022/04/27 06:32:10;;;;;;;4.00;3.33;;;7.40;99.80;;;;;;4198207;28;20469;-71
2022/04/27 06:34:10;;;;;;;3.20;2.90;;;7.40;99.80;;;;;;4198257;28;20504;-72
2022/04/27 06:36:11;;;;;;;3.10;2.50;;;7.50;98.40;;;;;;4197856;28;20225;-71
2022/04/27 06:38:12;;;;;;;2.60;2.40;;;7.40;96.60;;;;;;4198043;28;20212;-70
2022/04/27 06:40:13;;;;;;;3.17;2.80;;;7.30;97.90;;;;;;4197969;28;20184;-71
2022/04/27 06:42:13;;;;;;;3.10;2.73;;;7.10;99.00;;;;;;4197925;28;20623;-70
2022/04/27 06:44:14;;;;;;;3.90;2.77;;;7.10;99.60;;;;;;4196741;28;20279;-71
2022/04/27 06:46:15;;;;;;;3.87;3.13;;;7.20;99.30;;;;;;4197750;28;20602;-71
2022/04/27 06:48:15;;;;;;;4.23;3.50;;;7.20;98.30;;;;;;4197942;28;20675;-70
2022/04/27 06:50:16;;;;;;;3.60;3.17;;;7.50;97.70;;;;;;4195832;28;20546;-70
2022/04/27 06:52:17;;;;;;;3.80;3.07;;;7.30;98.70;;;;;;4180209;28;20727;-71
2022/04/27 06:54:18;;;;;;;4.40;3.20;;;7.40;98.40;;;;;;4181453;28;20604;-71
2022/04/27 06:56:18;;;;;;;4.33;3.73;;;7.60;97.80;;;;;;4181196;28;20529;-70
2022/04/27 06:58:19;;;;;;;3.13;2.53;;;7.60;98.20;;;;;;4181315;28;20202;-71
2022/04/27 07:00:20;;;;;;;4.30;3.40;;;7.90;96.10;;;;;;4181276;28;20198;-71
2022/04/27 07:02:21;;;;;;;2.30;2.10;;;7.70;95.40;;;;;;4180043;28;20305;-70
2022/04/27 07:04:22;;;;;;;3.37;2.57;;;7.70;96.20;;;;;;4180266;28;20178;-71
2022/04/27 07:06:23;;;;;;;3.37;2.97;;;7.90;95.50;;;;;;4197341;28;20245;-70
2022/04/27 07:08:25;;;;;;;4.37;3.03;;;8.30;94.40;;;;;;4196366;28;20669;-71
2022/04/27 07:10:26;;;;;;;3.50;3.03;;;8.50;93.90;;;;;;4196452;28;20207;-71
2022/04/27 07:12:26;;;;;;;3.20;2.70;;;8.50;93.10;;;;;;4196408;28;20428;-71
2022/04/27 07:14:27;;;;;;;3.20;2.73;;;8.40;94.30;;;;;;4197586;28;20880;-71
2022/04/27 07:16:28;;;;;;;5.13;2.83;;;8.40;94.70;;;;;;4197353;28;20219;-71
2022/04/27 07:18:29;;;;;;;3.03;2.73;;;8.10;94.50;;;;;;4197577;28;20209;-71
2022/04/27 07:20:30;;;;;;;3.10;2.50;;;8.00;92.80;;;;;;4196170;28;20349;-72
2022/04/27 07:22:31;;;;;;;2.83;2.50;;;7.50;94.50;;;;;;4197482;28;20485;-71
2022/04/27 07:24:32;;;;;;;2.50;2.20;;;7.60;95.50;;;;;;4196350;28;20184;-71
2022/04/27 07:26:34;;;;;;;2.93;2.50;;;7.80;95.20;;;;;;4197203;28;20190;-70
2022/04/27 07:28:36;;;;;;;3.90;2.80;;;8.00;94.00;;;;;;4196162;28;20454;-72
2022/04/27 07:30:37;;;;;;;3.27;2.70;;;8.10;94.60;;;;;;4196106;28;20176;-71
2022/04/27 07:32:38;;;;;;;3.83;3.07;;;8.30;93.90;;;;;;4197339;28;20190;-71
2022/04/27 07:34:38;;;;;;;2.50;2.30;;;8.50;94.00;;;;;;4197390;28;20224;-73
2022/04/27 07:36:39;;;;;;;3.17;2.77;;;8.60;93.10;;;;;;4195898;28;20192;-71
2022/04/27 07:38:41;;;;;;;2.90;2.30;;;8.60;92.50;;;;;;4197150;28;20210;-71
2022/04/27 07:40:41;;;;;;;3.53;2.50;;;8.70;92.10;;;;;;4195347;28;20180;-72
2022/04/27 07:42:42;;;;;;;2.97;2.47;;;8.80;91.70;;;;;;4197037;28;20214;-71
2022/04/27 07:44:43;;;;;;;3.70;2.77;;;9.20;90.40;;;;;;4197113;28;20190;-72
2022/04/27 07:46:47;;;;;;;3.23;2.60;;;9.50;90.20;;;;;;4195681;28;20179;-71
2022/04/27 07:48:48;;;;;;;3.10;2.53;;;9.90;88.60;;;;;;4197073;28;20210;-70
2022/04/27 07:50:48;;;;;;;3.40;2.70;;;9.70;88.10;;;;;;4195792;28;20856;-70
2022/04/27 07:52:49;;;;;;;3.07;2.60;;;9.50;86.10;;;;;;4197149;28;20191;-71
2022/04/27 07:54:50;;;;;;;3.20;2.40;;;9.50;89.90;;;;;;4195786;28;20196;-71
2022/04/27 07:56:51;;;;;;;2.47;2.27;;;9.60;87.00;;;;;;4197072;28;20262;-71
2022/04/27 07:58:51;;;;;;;2.40;2.00;;;9.60;86.10;;;;;;4197079;28;20203;-70
2022/04/27 08:00:52;;;;;;;2.90;2.60;;;10.10;78.40;;;;;;4197132;28;20219;-70
2022/04/27 08:02:53;;;;;;;2.10;1.80;;;9.90;81.10;;;;;;4197045;28;20199;-70
2022/04/27 08:04:53;;;;;;;1.80;1.50;;;9.60;78.10;;;;;;4196751;28;20635;-72
2022/04/27 08:06:54;;;;;;;1.83;1.60;;;9.00;79.10;;;;;;4196592;28;20217;-70
2022/04/27 08:08:55;;;;;;;1.63;1.53;;;9.10;81.50;;;;;;4196932;28;20662;-71
2022/04/27 08:10:56;;;;;;;1.97;1.77;;;9.50;77.20;;;;;;4196649;28;20233;-70
2022/04/27 08:12:57;;;;;;;1.50;1.40;;;9.80;76.40;;;;;;4196860;28;20566;-70
2022/04/27 08:14:57;;;;;;;1.97;1.43;;;9.80;71.00;;;;;;4196240;28;20182;-70
2022/04/27 08:16:59;;;;;;;1.43;1.30;;;10.00;73.50;;;;;;4196997;28;20242;-70
2022/04/27 08:18:59;;;;;;;1.30;1.20;;;10.00;70.50;;;;;;4195763;28;20219;-70
2022/04/27 08:21:15;;;;;;;1.77;1.40;;;10.30;73.80;;;;;;4196908;28;20195;-71
2022/04/27 08:23:17;;;;;;;1.80;1.60;;;10.60;68.20;;;;;;4197182;28;20646;-71
2022/04/27 08:25:17;;;;;;;1.40;1.30;;;10.40;70.80;;;;;;4195671;28;20183;-70
2022/04/27 08:27:18;;;;;;;2.07;1.57;;;10.30;68.50;;;;;;4196733;28;20190;-71
2022/04/27 08:29:19;;;;;;;1.90;1.70;;;9.60;74.80;;;;;;4196879;28;20763;-71
2022/04/27 08:31:20;;;;;;;3.27;1.47;;;9.60;75.50;;;;;;4196970;28;20179;-70
2022/04/27 08:33:21;;;;;;;1.97;1.70;;;10.00;75.70;;;;;;4196865;28;20244;-70
2022/04/27 08:35:22;;;;;;;1.97;1.50;;;10.30;73.40;;;;;;4178881;28;20673;-68
2022/04/27 08:37:22;;;;;;;1.40;1.30;;;10.50;72.50;;;;;;4196788;28;20188;-69
2022/04/27 08:39:23;;;;;;;4.07;1.43;;;10.70;73.00;;;;;;4198171;28;20237;-69
2022/04/27 08:41:26;;;;;;;1.90;1.60;;;11.10;68.80;;;;;;4198818;28;20215;-69
2022/04/27 08:43:26;;;;;;;2.77;1.60;;;11.70;65.70;;;;;;4196722;28;20187;-68
2022/04/27 08:45:29;;;;;;;1.90;1.60;;;12.00;64.40;;;;;;4197448;28;20179;-70
2022/04/27 08:47:30;;;;;;;1.67;1.40;;;12.20;63.00;;;;;;4198540;28;20262;-69
2022/04/27 08:49:34;;;;;;;2.40;1.60;;;11.80;65.00;;;;;;4197478;28;20209;-68
2022/04/27 08:51:38;;;;;;;1.67;1.53;;;12.10;64.40;;;;;;4195631;28;20183;-68
2022/04/27 08:53:38;;;;;;;2.87;1.50;;;11.60;65.90;;;;;;4196794;28;20225;-68
2022/04/27 08:55:41;;;;;;;1.70;1.60;;;11.70;63.20;;;;;;4198763;28;20503;-69
2022/04/27 08:57:43;;;;;;;2.10;1.80;;;11.50;70.80;;;;;;4198854;28;20666;-70
2022/04/27 08:59:43;;;;;;;1.47;1.37;;;11.30;68.30;;;;;;4198756;28;20292;-70
2022/04/27 09:01:44;;;;;;;6.47;1.80;;;11.70;66.00;;;;;;4198497;28;20210;-69
2022/04/27 09:03:46;;;;;;;1.50;1.40;;;11.80;63.20;;;;;;4198623;28;20282;-68
2022/04/27 09:05:53;;;;;;;1.60;1.50;;;11.90;62.60;;;;;;4197584;28;20707;-71
2022/04/27 09:07:57;;;;;;;2.30;1.87;;;12.50;63.10;;;;;;4198745;28;20171;-69
2022/04/27 09:09:58;;;;;;;2.30;2.00;;;11.70;65.20;;;;;;4198510;28;20175;-69
2022/04/27 09:12:00;;;;;;;2.00;1.70;;;11.90;66.60;;;;;;4198035;28;20266;-68
2022/04/27 09:14:03;;;;;;;3.17;1.70;;;12.10;68.80;;;;;;4199312;28;20203;-69
2022/04/27 09:16:04;;;;;;;2.53;1.90;;;12.30;64.40;;;;;;4197882;28;20203;-70
2022/04/27 09:20:50;;;;;;;2.10;1.90;;;12.20;67.70;;;;;;4197976;28;20238;-69
2022/04/27 09:22:51;;;;;;;2.40;2.20;;;11.90;69.60;;;;;;4199330;28;20552;-69
2022/04/27 09:24:54;;;;;;;1.80;1.70;;;11.00;67.30;;;;;;4199310;28;20205;-68
2022/04/27 09:27:18;;;;;;;2.40;1.70;;;11.60;65.50;;;;;;4197983;28;20593;-68
2022/04/27 09:29:26;;;;;;;2.97;1.90;;;12.10;65.90;;;;;;4197855;28;20200;-69
2022/04/27 09:31:32;;;;;;;1.80;1.40;;;12.30;64.00;;;;;;4199365;28;20175;-70
2022/04/27 09:33:36;;;;;;;1.47;1.30;;;12.80;63.80;;;;;;4181297;28;20188;-68
2022/04/27 09:35:37;;;;;;;3.03;1.67;;;12.60;60.40;;;;;;4197764;28;20255;-69
2022/04/27 09:37:43;;;;;;;3.03;1.60;;;12.20;62.80;;;;;;4199238;28;20297;-69
2022/04/27 09:39:46;;;;;;;1.67;1.43;;;12.60;61.10;;;;;;4197918;28;20278;-69
2022/04/27 09:41:47;;;;;;;1.97;1.53;;;11.60;62.60;;;;;;4199210;28;20573;-68
2022/04/27 09:43:49;;;;;;;1.60;1.30;;;12.00;65.60;;;;;;4199393;28;20184;-69
2022/04/27 09:45:49;;;;;;;1.70;1.60;;;12.10;65.30;;;;;;4198913;28;20567;-70
2022/04/27 09:48:02;;;;;;;1.60;1.47;;;12.30;63.90;;;;;;4198069;28;20178;-69
2022/04/27 09:50:03;;;;;;;1.73;1.63;;;12.50;62.60;;;;;;4199004;28;20180;-69
2022/04/27 09:52:06;;;;;;;1.70;1.53;;;12.50;60.60;;;;;;4198956;28;20214;-69
2022/04/27 09:54:07;;;;;;;2.20;1.90;;;12.60;63.00;;;;;;4198158;28;20266;-68
2022/04/27 09:56:12;;;;;;;2.57;2.07;;;13.00;62.00;;;;;;4198763;28;20717;-69
2022/04/27 09:58:18;;;;;;;2.03;1.83;;;12.60;60.70;;;;;;4197740;28;20685;-69
2022/04/27 10:00:19;;;;;;;5.20;2.20;;;12.80;64.10;;;;;;4197934;28;20357;-70
2022/04/27 10:02:30;;;;;;;2.53;1.50;;;12.70;60.20;;;;;;4197606;28;20203;-69
2022/04/27 10:04:30;;;;;;;2.03;1.60;;;13.00;57.60;;;;;;4199865;28;20273;-69
2022/04/27 10:06:33;;;;;;;2.40;1.50;;;12.70;63.00;;;;;;4201954;28;20180;-71
2022/04/27 10:08:39;;;;;;;1.90;1.70;;;13.10;61.90;;;;;;4201111;28;20199;-69
2022/04/27 10:10:41;;;;;;;2.43;1.90;;;13.40;57.90;;;;;;4201139;28;20183;-70
2022/04/27 10:12:42;;;;;;;1.87;1.60;;;12.70;60.70;;;;;;4199957;28;20252;-69
2022/04/27 10:14:44;;;;;;;2.50;1.57;;;13.00;61.40;;;;;;4199218;28;20175;-69
2022/04/27 10:16:44;;;;;;;5.27;1.50;;;13.60;57.60;;;;;;4198926;28;20231;-69
2022/04/27 10:18:45;;;;;;;1.50;1.20;;;14.00;56.10;;;;;;4197515;28;20198;-69
2022/04/27 10:20:51;;;;;;;1.57;1.30;;;13.30;57.80;;;;;;4199031;28;20203;-70
2022/04/27 10:22:52;;;;;;;1.40;1.20;;;13.00;58.80;;;;;;4197560;28;20720;-69
2022/04/27 10:24:55;;;;;;;2.37;1.27;;;13.30;55.80;;;;;;4198942;28;20229;-70
2022/04/27 10:27:35;;;;;;;1.80;1.70;;;12.40;59.10;;;;;;4198434;28;20673;-69
2022/04/27 10:29:36;;;;;;;1.30;1.20;;;12.60;57.80;;;;;;4197471;28;20191;-69
2022/04/27 10:31:46;;;;;;;1.27;1.10;;;13.30;57.50;;;;;;4197550;28;20263;-69
2022/04/27 10:33:51;;;;;;;11.53;3.63;;;13.20;57.50;;;;;;4198615;28;20218;-69
2022/04/27 10:35:51;;;;;;;2.53;1.63;;;13.50;55.90;;;;;;4198442;28;20180;-69
2022/04/27 10:37:54;;;;;;;5.07;2.57;;;14.20;54.30;;;;;;4198568;28;20184;-69
2022/04/27 10:39:55;;;;;;;2.17;1.80;;;14.20;50.80;;;;;;4198482;28;20179;-70
2022/04/27 10:42:15;;;;;;;1.97;1.80;;;14.10;53.00;;;;;;4196177;28;20780;-70
2022/04/27 10:44:16;;;;;;;1.30;1.20;;;13.80;54.20;;;;;;4182078;28;20633;-68
2022/04/27 10:46:41;;;;;;;1.57;1.10;;;14.20;54.30;;;;;;4181951;28;20176;-70
2022/04/27 10:48:48;;;;;;;2.30;1.17;;;14.90;50.80;;;;;;4182489;28;20699;-69
2022/04/27 10:51:03;;;;;;;1.93;1.10;;;15.20;50.00;;;;;;4180796;28;20172;-69
2022/04/27 10:53:17;;;;;;;1.53;1.40;;;15.70;47.60;;;;;;4180663;28;20723;-69
2022/04/27 10:55:50;;;;;;;1.70;1.40;;;16.90;47.50;;;;;;4180470;28;20176;-70
2022/04/27 10:58:11;;;;;;;1.50;1.37;;;16.20;48.60;;;;;;4191441;28;20283;-69
2022/04/27 11:00:13;;;;;;;2.70;1.57;;;15.10;47.70;;;;;;4198469;28;20171;-70